createdAt,value
2018-08-23T00:01:35.994Z,98271.60
2018-08-23T00:04:07.341Z,98271.31
2018-08-23T00:06:36.590Z,98275.89
2018-08-23T00:09:08.016Z,98270.33
2018-08-23T00:11:45.108Z,98271.67
2018-08-23T00:14:14.147Z,98269.22
2018-08-23T00:16:44.279Z,98267.42
2018-08-23T00:19:12.668Z,98271.67
2018-08-23T00:21:42.619Z,98267.58
2018-08-23T00:24:15.216Z,98269.75
2018-08-23T00:26:47.655Z,98267.68
2018-08-23T00:29:32.729Z,98264.77
2018-08-23T00:32:05.383Z,98267.25
2018-08-23T00:34:37.865Z,98262.70
2018-08-23T00:37:06.761Z,98270.59
2018-08-23T00:39:34.997Z,98264.66
2018-08-23T00:42:04.411Z,98269.64
2018-08-23T00:44:55.553Z,98263.09
2018-08-23T00:47:28.149Z,98262.38
2018-08-23T00:49:56.540Z,98268.33
2018-08-23T00:52:40.880Z,98257.20
2018-08-23T00:55:27.397Z,98258.13
2018-08-23T00:57:56.072Z,98253.27
2018-08-23T01:00:25.890Z,98259.58
2018-08-23T01:03:01.546Z,98254.94
2018-08-23T01:05:35.576Z,98255.03
2018-08-23T01:08:05.013Z,98256.02
2018-08-23T01:10:34.128Z,98253.13
2018-08-23T01:13:03.148Z,98248.22
2018-08-23T01:15:32.378Z,98256.06
2018-08-23T01:18:13.597Z,98247.95
2018-08-23T01:20:42.996Z,98244.73
2018-08-23T01:23:11.958Z,98246.75
2018-08-23T01:25:42.335Z,98246.17
2018-08-23T01:28:11.228Z,98247.02
2018-08-23T01:30:40.010Z,98241.78
2018-08-23T01:33:16.060Z,98243.09
2018-08-23T01:35:45.894Z,98240.67
2018-08-23T01:38:15.452Z,98242.11
2018-08-23T01:40:43.981Z,98234.86
2018-08-23T01:43:13.079Z,98242.25
2018-08-23T01:45:41.296Z,98240.13
2018-08-23T01:48:10.479Z,98242.41
2018-08-23T01:50:39.605Z,98247.64
2018-08-23T01:53:14.760Z,98254.54
2018-08-23T01:55:43.422Z,98246.06
2018-08-23T01:58:13.397Z,98246.55
2018-08-23T02:00:42.000Z,98253.45
2018-08-23T02:03:10.585Z,98249.25
2018-08-23T02:05:42.284Z,98248.43
2018-08-23T02:08:10.833Z,98247.15
2018-08-23T02:10:40.675Z,98242.89
2018-08-23T02:13:15.745Z,98238.17
2018-08-23T02:15:49.807Z,98237.03
2018-08-23T02:18:19.191Z,98236.20
2018-08-23T02:20:49.600Z,98237.03
2018-08-23T02:23:17.856Z,98241.09
2018-08-23T02:25:46.120Z,98233.57
2018-08-23T02:28:14.640Z,98241.28
2018-08-23T02:30:53.584Z,98235.11
2018-08-23T02:33:22.318Z,98234.08
2018-08-23T02:36:18.868Z,98233.36
2018-08-23T02:39:01.172Z,98228.52
2018-08-23T02:41:30.152Z,98225.14
2018-08-23T02:43:58.584Z,98234.63
2018-08-23T02:46:26.784Z,98227.75
2018-08-23T02:48:55.294Z,98230.85
2018-08-23T02:51:40.349Z,98231.48
2018-08-23T02:54:14.076Z,98222.19
2018-08-23T02:56:46.388Z,98220.75
2018-08-23T02:59:14.942Z,98220.25
2018-08-23T03:01:45.624Z,98223.09
2018-08-23T03:04:18.172Z,98221.12
2018-08-23T03:06:57.720Z,98218.66
2018-08-23T03:09:29.128Z,98214.37
2018-08-23T03:11:59.630Z,98210.41
2018-08-23T03:14:29.101Z,98210.90
2018-08-23T03:18:04.531Z,98207.83
2018-08-23T03:20:33.945Z,98214.73
2018-08-23T03:23:02.327Z,98214.12
2018-08-23T03:25:32.748Z,98203.37
2018-08-23T03:28:08.043Z,98207.60
2018-08-23T03:30:36.476Z,98203.40
2018-08-23T03:33:04.725Z,98204.86
2018-08-23T03:35:39.333Z,98205.54
2018-08-23T03:38:07.572Z,98209.79
2018-08-23T03:40:35.820Z,98212.52
2018-08-23T03:43:04.225Z,98210.22
2018-08-23T03:45:32.473Z,98212.53
2018-08-23T03:48:00.782Z,98209.59
2018-08-23T03:50:31.530Z,98210.41
2018-08-23T03:52:59.732Z,98211.70
2018-08-23T03:55:28.299Z,98208.13
2018-08-23T03:58:00.812Z,98209.09
2018-08-23T04:00:34.519Z,98206.64
2018-08-23T04:03:07.353Z,98211.38
2018-08-23T04:05:35.881Z,98217.42
2018-08-23T04:08:04.543Z,98209.79
2018-08-23T04:10:32.746Z,98214.55
2018-08-23T04:13:01.225Z,98219.15
2018-08-23T04:15:30.524Z,98212.63
2018-08-23T04:18:04.607Z,98218.34
2018-08-23T04:20:34.889Z,98218.50
2018-08-23T04:23:03.624Z,98218.83
2018-08-23T04:25:32.098Z,98215.58
2018-08-23T04:28:00.578Z,98217.84
2018-08-23T04:30:28.999Z,98218.48
2018-08-23T04:32:57.878Z,98220.13
2018-08-23T04:35:27.244Z,98218.33
2018-08-23T04:37:55.806Z,98223.86
2018-08-23T04:40:24.013Z,98226.64
2018-08-23T04:42:52.383Z,98222.53
2018-08-23T04:45:24.038Z,98224.02
2018-08-23T04:47:57.869Z,98226.44
2018-08-23T04:50:26.277Z,98226.77
2018-08-23T04:52:54.649Z,98232.48
2018-08-23T04:55:24.020Z,98229.86
2018-08-23T04:57:52.437Z,98228.52
2018-08-23T05:00:20.637Z,98224.75
2018-08-23T05:02:49.188Z,98224.56
2018-08-23T05:05:18.020Z,98226.34
2018-08-23T05:07:46.669Z,98228.38
2018-08-23T05:10:14.949Z,98227.66
2018-08-23T05:12:43.245Z,98238.06
2018-08-23T05:15:11.864Z,98233.10
2018-08-23T05:17:40.513Z,98236.66
2018-08-23T05:20:09.255Z,98238.55
2018-08-23T05:22:38.363Z,98231.62
2018-08-23T05:25:14.648Z,98228.56
2018-08-23T05:28:07.772Z,98229.35
2018-08-23T05:30:37.261Z,98226.89
2018-08-23T05:33:23.925Z,98229.44
2018-08-23T05:35:52.611Z,98230.25
2018-08-23T05:38:21.480Z,98230.19
2018-08-23T05:41:02.132Z,98223.43
2018-08-23T05:43:30.508Z,98226.76
2018-08-23T05:45:59.975Z,98222.09
2018-08-23T05:48:29.617Z,98222.45
2018-08-23T05:51:11.576Z,98228.23
2018-08-23T05:53:45.311Z,98231.33
2018-08-23T05:56:13.524Z,98234.39
2018-08-23T05:58:42.313Z,98231.77
2018-08-23T06:01:11.648Z,98236.52
2018-08-23T06:03:40.280Z,98234.27
2018-08-23T06:06:08.746Z,98231.58
2018-08-23T06:08:41.073Z,98226.25
2018-08-23T06:11:10.751Z,98234.56
2018-08-23T06:13:39.448Z,98230.41
2018-08-23T06:16:08.861Z,98241.94
2018-08-23T06:18:38.924Z,98242.26
2018-08-23T06:21:07.633Z,98240.08
2018-08-23T06:23:57.608Z,98233.52
2018-08-23T06:26:54.092Z,98237.08
2018-08-23T06:29:29.710Z,98237.20
2018-08-23T06:32:09.863Z,98237.65
2018-08-23T06:34:57.432Z,98245.70
2018-08-23T06:37:26.296Z,98238.38
2018-08-23T06:39:56.131Z,98240.67
2018-08-23T06:42:44.615Z,98248.26
2018-08-23T06:45:13.206Z,98249.89
2018-08-23T06:47:44.013Z,98246.14
2018-08-23T06:50:20.716Z,98242.11
2018-08-23T06:52:49.343Z,98248.90
2018-08-23T06:57:55.038Z,98237.66
2018-08-23T07:00:26.391Z,98238.02
2018-08-23T07:02:54.992Z,98233.33
2018-08-23T07:05:23.480Z,98238.22
2018-08-23T07:07:52.722Z,98241.61
2018-08-23T07:10:20.948Z,98239.61
2018-08-23T07:12:49.428Z,98240.36
2018-08-23T07:15:18.406Z,98236.41
2018-08-23T07:17:46.893Z,98239.11
2018-08-23T07:20:16.085Z,98236.28
2018-08-23T07:22:44.944Z,98238.56
2018-08-23T07:25:16.609Z,98239.34
2018-08-23T07:27:45.203Z,98237.95
2018-08-23T07:30:20.992Z,98235.81
2018-08-23T07:32:50.627Z,98231.58
2018-08-23T07:35:20.849Z,98230.95
2018-08-23T07:37:50.665Z,98227.12
2018-08-23T07:40:23.287Z,98230.15
2018-08-23T07:42:52.783Z,98228.39
2018-08-23T07:45:21.402Z,98224.73
2018-08-23T07:47:51.111Z,98227.02
2018-08-23T07:50:19.458Z,98226.98
2018-08-23T07:52:49.342Z,98229.98
2018-08-23T07:55:17.452Z,98231.61
2018-08-23T07:57:46.084Z,98230.91
2018-08-23T08:00:36.481Z,98236.95
2018-08-23T08:03:05.142Z,98232.64
2018-08-23T08:05:36.979Z,98235.64
2018-08-23T08:08:06.824Z,98233.61
2018-08-23T08:10:37.525Z,98230.95
2018-08-23T08:13:05.887Z,98241.38
2018-08-23T08:15:34.179Z,98242.92
2018-08-23T08:18:23.527Z,98250.40
2018-08-23T08:21:01.662Z,98250.77
2018-08-23T08:23:31.212Z,98252.52
2018-08-23T08:25:59.425Z,98257.30
2018-08-23T08:28:27.989Z,98259.64
2018-08-23T08:31:00.778Z,98258.23
2018-08-23T08:33:37.109Z,98259.55
2018-08-23T08:36:06.268Z,98264.75
2018-08-23T08:38:35.308Z,98260.76
2018-08-23T08:41:03.761Z,98261.10
2018-08-23T08:43:32.011Z,98265.30
2018-08-23T08:46:00.718Z,98261.60
2018-08-23T08:48:32.317Z,98269.24
2018-08-23T08:51:31.865Z,98269.59
2018-08-23T08:54:02.569Z,98268.31
2018-08-23T08:56:36.675Z,98260.92
2018-08-23T08:59:05.084Z,98259.08
2018-08-23T09:01:33.300Z,98256.05
2018-08-23T09:04:02.014Z,98260.73
2018-08-23T09:06:36.121Z,98258.08
2018-08-23T09:09:28.860Z,98261.61
2018-08-23T09:12:00.806Z,98257.39
2018-08-23T09:14:29.496Z,98254.17
2018-08-23T09:16:58.816Z,98254.48
2018-08-23T09:19:44.205Z,98249.61
2018-08-23T09:22:18.446Z,98254.83
2018-08-23T09:24:47.102Z,98252.89
2018-08-23T09:27:18.000Z,98250.72
2018-08-23T09:29:46.832Z,98245.44
2018-08-23T09:32:21.273Z,98247.91
2018-08-23T09:34:54.677Z,98246.80
2018-08-23T09:37:22.867Z,98247.69
2018-08-23T09:39:51.228Z,98247.98
2018-08-23T09:42:20.457Z,98250.06
2018-08-23T09:45:02.007Z,98244.84
2018-08-23T09:47:30.712Z,98235.92
2018-08-23T09:49:59.710Z,98237.61
2018-08-23T09:52:32.447Z,98233.27
2018-08-23T09:55:00.648Z,98228.44
2018-08-23T09:57:28.955Z,98233.98
2018-08-23T09:59:57.261Z,98230.91
2018-08-23T10:02:31.394Z,98226.84
2018-08-23T10:05:03.681Z,98229.36
2018-08-23T10:07:37.493Z,98223.81
2018-08-23T10:10:11.521Z,98222.89
2018-08-23T10:12:45.382Z,98215.69
2018-08-23T10:15:19.336Z,98216.95
2018-08-23T10:17:53.209Z,98203.05
2018-08-23T10:20:27.185Z,98208.84
2018-08-23T10:23:03.161Z,98204.64
2018-08-23T10:25:38.623Z,98212.08
2018-08-23T10:28:09.133Z,98198.06
2018-08-23T10:30:37.748Z,98199.80
2018-08-23T10:33:06.572Z,98196.97
2018-08-23T10:35:35.726Z,98194.13
2018-08-23T10:38:04.530Z,98192.95
2018-08-23T10:40:33.077Z,98187.97
2018-08-23T10:43:01.689Z,98192.45
2018-08-23T10:45:29.946Z,98188.88
2018-08-23T10:48:03.872Z,98189.16
2018-08-23T10:50:33.179Z,98185.27
2018-08-23T10:53:02.004Z,98186.77
2018-08-23T10:55:30.249Z,98183.03
2018-08-23T10:57:58.428Z,98183.83
2018-08-23T11:00:26.645Z,98185.41
2018-08-23T11:02:55.150Z,98181.18
2018-08-23T11:05:23.507Z,98171.45
2018-08-23T11:07:57.365Z,98178.08
2018-08-23T11:10:31.391Z,98175.02
2018-08-23T11:13:05.332Z,98167.62
2018-08-23T11:15:33.792Z,98162.02
2018-08-23T11:18:08.150Z,98152.60
2018-08-23T11:20:41.933Z,98152.25
2018-08-23T11:23:10.339Z,98155.52
2018-08-23T11:25:38.652Z,98145.83
2018-08-23T11:28:12.742Z,98138.56
2018-08-23T11:30:42.422Z,98139.52
2018-08-23T11:33:11.199Z,98127.40
2018-08-23T11:35:39.413Z,98119.08
2018-08-23T11:38:08.620Z,98116.33
2018-08-23T11:40:37.939Z,98112.38
2018-08-23T11:43:06.117Z,98113.88
2018-08-23T11:45:34.944Z,98097.73
2018-08-23T11:48:03.171Z,98101.59
2018-08-23T11:50:31.636Z,98105.02
2018-08-23T11:52:59.867Z,98111.09
2018-08-23T11:55:29.015Z,98104.48
2018-08-23T11:57:57.627Z,98098.48
2018-08-23T12:00:26.109Z,98096.27
2018-08-23T12:02:54.533Z,98097.75
2018-08-23T12:05:23.485Z,98101.64
2018-08-23T12:07:52.984Z,98103.70
2018-08-23T12:10:22.670Z,98105.59
2018-08-23T12:12:52.264Z,98111.13
2018-08-23T12:15:29.598Z,98117.20
2018-08-23T12:17:58.184Z,98128.13
2018-08-23T12:20:26.829Z,98148.53
2018-08-23T12:22:55.111Z,98194.69
2018-08-23T12:25:23.289Z,98193.11
2018-08-23T12:28:01.961Z,98218.48
2018-08-23T12:30:31.647Z,98218.09
2018-08-23T12:32:59.870Z,98240.30
2018-08-23T12:35:29.366Z,98245.55
2018-08-23T12:38:03.425Z,98243.42
2018-08-23T12:40:37.558Z,98240.02
2018-08-23T12:43:14.078Z,98237.70
2018-08-23T12:45:44.017Z,98239.42
2018-08-23T12:48:13.561Z,98245.98
2018-08-23T12:50:42.947Z,98229.86
2018-08-23T12:53:11.362Z,98207.77
2018-08-23T12:55:40.392Z,98209.12
2018-08-23T12:58:09.305Z,98189.86
2018-08-23T13:00:38.571Z,98186.75
2018-08-23T13:03:07.436Z,98185.78
2018-08-23T13:05:36.315Z,98177.16
2018-08-23T13:08:05.623Z,98156.30
2018-08-23T13:10:34.586Z,98141.98
2018-08-23T13:13:03.301Z,98148.83
2018-08-23T13:15:32.008Z,98149.22
2018-08-23T13:18:00.433Z,98153.61
2018-08-23T13:20:28.938Z,98155.47
2018-08-23T13:22:57.282Z,98154.33
2018-08-23T13:25:26.245Z,98149.13
2018-08-23T13:27:54.534Z,98158.84
2018-08-23T13:30:22.749Z,98161.09
2018-08-23T13:32:51.310Z,98152.36
2018-08-23T13:35:19.907Z,98132.08
2018-08-23T13:37:48.676Z,98132.66
2018-08-23T13:40:18.778Z,98141.83
2018-08-23T13:42:47.994Z,98135.47
2018-08-23T13:45:16.687Z,98137.79
2018-08-23T13:47:44.922Z,98136.94
2018-08-23T13:50:13.117Z,98127.13
2018-08-23T13:52:41.574Z,98127.02
2018-08-23T13:55:10.390Z,98131.22
2018-08-23T13:57:40.125Z,98132.25
2018-08-23T14:00:14.671Z,98135.35
2018-08-23T14:02:43.202Z,98145.86
2018-08-23T14:05:12.398Z,98145.28
2018-08-23T14:07:41.822Z,98134.56
2018-08-23T14:10:11.125Z,98126.30
2018-08-23T14:12:40.041Z,98116.02
2018-08-23T14:15:14.360Z,98114.88
2018-08-23T14:17:42.824Z,98119.95
2018-08-23T14:20:10.989Z,98083.62
2018-08-23T14:22:39.430Z,98095.72
2018-08-23T14:25:08.018Z,98084.09
2018-08-23T14:27:36.479Z,98065.77
2018-08-23T14:30:04.939Z,98063.77
2018-08-23T14:32:33.725Z,98066.66
2018-08-23T14:35:01.921Z,98064.40
2018-08-23T14:37:31.345Z,98057.66
2018-08-23T14:39:59.730Z,98057.86
2018-08-23T14:42:29.003Z,98046.18
2018-08-23T14:44:57.327Z,98038.31
2018-08-23T14:47:32.067Z,98039.00
2018-08-23T14:50:01.039Z,98037.75
2018-08-23T14:52:29.908Z,98038.12
2018-08-23T14:54:58.316Z,98037.48
2018-08-23T14:57:33.131Z,98040.77
2018-08-23T15:00:02.377Z,98040.22
2018-08-23T15:02:30.715Z,98042.35
2018-08-23T15:05:00.207Z,98045.08
2018-08-23T15:07:28.867Z,98049.45
2018-08-23T15:09:57.475Z,98051.66
2018-08-23T15:12:26.277Z,98051.27
2018-08-23T15:14:54.699Z,98048.02
2018-08-23T15:17:23.389Z,98044.36
2018-08-23T15:19:51.828Z,98040.13
2018-08-23T15:22:20.621Z,98035.14
2018-08-23T15:24:49.533Z,98035.37
2018-08-23T15:27:18.467Z,98030.20
2018-08-23T15:29:47.072Z,98026.16
2018-08-23T15:32:15.344Z,98029.89
2018-08-23T15:34:44.084Z,98028.19
2018-08-23T15:37:12.389Z,98022.80
2018-08-23T15:39:40.597Z,98023.91
2018-08-23T15:42:08.970Z,98014.20
2018-08-23T15:44:37.390Z,98000.13
2018-08-23T15:47:05.759Z,98003.05
2018-08-23T15:49:35.436Z,97998.66
2018-08-23T15:52:04.164Z,97997.38
2018-08-23T15:54:32.424Z,97989.74
2018-08-23T15:57:01.177Z,97984.13
2018-08-23T15:59:29.516Z,97987.28
2018-08-23T16:01:57.945Z,97990.97
2018-08-23T16:04:26.246Z,97989.98
2018-08-23T16:06:54.602Z,97985.02
2018-08-23T16:09:23.898Z,97978.94
2018-08-23T16:11:52.212Z,97984.84
2018-08-23T16:14:20.487Z,97989.08
2018-08-23T16:16:54.923Z,97983.84
2018-08-23T16:19:29.004Z,97985.91
2018-08-23T16:21:58.441Z,97988.42
2018-08-23T16:24:27.656Z,97987.47
2018-08-23T16:27:02.830Z,97988.89
2018-08-23T16:29:31.326Z,97989.11
2018-08-23T16:31:59.930Z,97991.73
2018-08-23T16:34:28.420Z,97987.42
2018-08-23T16:36:56.763Z,97983.75
2018-08-23T16:39:25.672Z,97966.75
2018-08-23T16:41:54.631Z,97971.95
2018-08-23T16:44:23.136Z,97967.81
2018-08-23T16:46:51.412Z,97967.08
2018-08-23T16:49:19.793Z,97960.50
2018-08-23T16:51:48.213Z,97956.25
2018-08-23T16:54:16.753Z,97965.63
2018-08-23T16:56:45.203Z,97964.84
2018-08-23T16:59:14.701Z,97955.55
2018-08-23T17:01:43.724Z,97956.77
2018-08-23T17:04:12.295Z,97951.62
2018-08-23T17:06:41.529Z,97950.01
2018-08-23T17:09:09.940Z,97946.38
2018-08-23T17:11:38.405Z,97950.27
2018-08-23T17:14:06.710Z,97945.33
2018-08-23T17:16:41.291Z,97945.03
2018-08-23T17:19:09.664Z,97944.37
2018-08-23T17:21:38.884Z,97948.23
2018-08-23T17:24:07.185Z,97938.14
2018-08-23T17:26:36.289Z,97936.09
2018-08-23T17:29:05.153Z,97934.39
2018-08-23T17:31:34.128Z,97939.46
2018-08-23T17:34:03.056Z,97938.19
2018-08-23T17:36:31.368Z,97933.30
2018-08-23T17:39:01.038Z,97933.63
2018-08-23T17:41:30.155Z,97929.66
2018-08-23T17:43:59.345Z,97931.92
2018-08-23T17:46:27.681Z,97942.49
2018-08-23T17:48:56.212Z,97944.22
2018-08-23T17:51:25.081Z,97948.67
2018-08-23T17:53:53.923Z,97942.83
2018-08-23T17:56:22.806Z,97945.34
2018-08-23T17:58:51.785Z,97945.97
2018-08-23T18:01:20.187Z,97945.24
2018-08-23T18:03:49.297Z,97945.66
2018-08-23T18:06:18.319Z,97949.06
2018-08-23T18:08:47.052Z,97951.88
2018-08-23T18:11:16.000Z,97956.42
2018-08-23T18:13:45.244Z,97957.19
2018-08-23T18:16:19.380Z,97957.38
2018-08-23T18:18:47.872Z,97966.17
2018-08-23T18:21:16.651Z,97963.30
2018-08-23T18:23:46.098Z,97966.84
2018-08-23T18:26:14.954Z,97963.57
2018-08-23T18:28:43.504Z,97965.83
2018-08-23T18:31:12.349Z,97968.24
2018-08-23T18:33:41.661Z,97965.48
2018-08-23T18:36:12.046Z,97967.61
2018-08-23T18:38:40.865Z,97967.61
2018-08-23T18:41:10.722Z,97968.72
2018-08-23T18:43:39.364Z,97968.76
2018-08-23T18:46:08.560Z,97968.41
2018-08-23T18:48:37.282Z,97961.56
2018-08-23T18:51:05.931Z,97967.16
2018-08-23T18:53:34.540Z,97967.23
2018-08-23T18:56:03.264Z,97980.28
2018-08-23T18:58:31.674Z,97971.80
2018-08-23T19:01:00.466Z,97979.25
2018-08-23T19:03:29.640Z,97970.02
2018-08-23T19:05:58.700Z,97979.37
2018-08-23T19:08:27.040Z,97983.57
2018-08-23T19:10:55.936Z,97988.81
2018-08-23T19:13:24.586Z,97985.02
2018-08-23T19:15:58.852Z,97983.59
2018-08-23T19:18:28.393Z,97982.83
2018-08-23T19:20:57.333Z,97991.02
2018-08-23T19:23:27.762Z,97984.46
2018-08-23T19:25:56.501Z,97989.20
2018-08-23T19:28:24.908Z,97986.15
2018-08-23T19:30:54.604Z,97987.75
2018-08-23T19:33:23.451Z,97989.44
2018-08-23T19:35:51.817Z,97997.50
2018-08-23T19:38:20.169Z,97986.15
2018-08-23T19:40:48.580Z,97979.11
2018-08-23T19:43:17.112Z,97992.06
2018-08-23T19:45:52.439Z,97996.37
2018-08-23T19:48:21.311Z,98008.48
2018-08-23T19:50:50.487Z,98010.17
2018-08-23T19:53:18.809Z,98009.68
2018-08-23T19:55:47.222Z,98013.78
2018-08-23T19:58:15.489Z,98020.27
2018-08-23T20:00:44.193Z,98020.09
2018-08-23T20:03:13.266Z,98026.39
2018-08-23T20:05:41.637Z,98028.69
2018-08-23T20:08:10.697Z,98031.97
2018-08-23T20:10:39.937Z,98037.05
2018-08-23T20:13:08.639Z,98028.88
2018-08-23T20:15:37.008Z,98025.77
2018-08-23T20:18:05.678Z,98016.98
2018-08-23T20:20:33.928Z,98010.34
2018-08-23T20:23:02.490Z,98016.09
2018-08-23T20:25:30.916Z,98024.58
2018-08-23T20:28:00.336Z,98032.70
2018-08-23T20:30:28.927Z,98026.06
2018-08-23T20:32:57.579Z,98025.77
2018-08-23T20:35:25.771Z,98017.97
2018-08-23T20:37:54.400Z,98025.89
2018-08-23T20:40:23.007Z,98020.27
2018-08-23T20:42:51.351Z,98022.02
2018-08-23T20:45:19.638Z,98016.39
2018-08-23T20:47:48.175Z,98018.40
2018-08-23T20:50:16.786Z,98016.25
2018-08-23T20:52:45.523Z,98026.31
2018-08-23T20:55:13.827Z,98032.67
2018-08-23T20:57:42.502Z,98031.08
2018-08-23T21:00:10.795Z,98033.70
2018-08-23T21:02:39.710Z,98037.03
2018-08-23T21:05:08.667Z,98042.92
2018-08-23T21:07:37.603Z,98058.06
2018-08-23T21:10:06.075Z,98060.49
2018-08-23T21:12:34.648Z,98075.47
2018-08-23T21:15:03.027Z,98088.59
2018-08-23T21:17:32.259Z,98110.58
2018-08-23T21:20:00.828Z,98115.22
2018-08-23T21:22:29.541Z,98115.89
2018-08-23T21:24:58.293Z,98103.02
2018-08-23T21:27:26.606Z,98100.91
2018-08-23T21:29:54.917Z,98104.45
2018-08-23T21:32:23.261Z,98105.70
2018-08-23T21:34:51.763Z,98100.91
2018-08-23T21:37:20.542Z,98095.05
2018-08-23T21:39:49.561Z,98098.34
2018-08-23T21:42:18.172Z,98095.22
2018-08-23T21:44:46.658Z,98084.03
2018-08-23T21:47:15.524Z,98068.08
2018-08-23T21:49:44.071Z,98058.63
2018-08-23T21:52:13.445Z,98056.10
2018-08-23T21:54:41.887Z,98057.80
2018-08-23T21:57:10.306Z,98051.73
2018-08-23T21:59:38.864Z,98042.50
2018-08-23T22:02:12.956Z,98035.19
2018-08-23T22:04:47.366Z,98023.95
2018-08-23T22:07:16.337Z,98028.38
2018-08-23T22:09:48.430Z,98025.88
2018-08-23T22:12:19.335Z,98031.26
2018-08-23T22:14:48.090Z,98038.67
2018-08-23T22:17:17.124Z,98048.52
2018-08-23T22:19:45.968Z,98054.14
2018-08-23T22:22:14.707Z,98048.73
2018-08-23T22:24:43.649Z,98054.72
2018-08-23T22:27:12.280Z,98053.02
2018-08-23T22:29:40.594Z,98046.28
2018-08-23T22:32:09.269Z,98046.70
2018-08-23T22:34:38.020Z,98053.97
2018-08-23T22:37:06.855Z,98042.45
2018-08-23T22:39:35.460Z,98043.28
2018-08-23T22:42:04.019Z,98045.16
2018-08-23T22:44:32.671Z,98037.86
2018-08-23T22:47:01.025Z,98043.80
2018-08-23T22:49:29.760Z,98041.34
2018-08-23T22:51:58.413Z,98041.61
2018-08-23T22:54:27.228Z,98030.48
2018-08-23T22:56:55.725Z,98026.06
2018-08-23T22:59:25.762Z,98026.14
2018-08-23T23:01:54.367Z,98017.59
2018-08-23T23:04:26.078Z,98007.96
2018-08-23T23:06:55.982Z,98002.97
2018-08-23T23:09:25.460Z,98002.94
2018-08-23T23:11:53.886Z,97999.80
2018-08-23T23:14:23.092Z,97994.23
2018-08-23T23:16:53.687Z,97990.88
2018-08-23T23:19:24.216Z,97986.34
2018-08-23T23:21:52.648Z,97993.00
2018-08-23T23:24:26.860Z,97991.37
2018-08-23T23:26:56.338Z,97979.16
2018-08-23T23:29:25.372Z,97984.95
2018-08-23T23:31:54.279Z,97986.62
2018-08-23T23:34:23.328Z,97980.02
2018-08-23T23:36:52.931Z,97986.62
2018-08-23T23:39:21.651Z,97982.63
2018-08-23T23:41:50.588Z,97980.25
2018-08-23T23:44:19.102Z,97981.72
2018-08-23T23:46:47.389Z,97980.28
2018-08-23T23:49:15.795Z,97979.36
2018-08-23T23:51:44.070Z,97974.61
2018-08-23T23:54:12.529Z,97972.94
2018-08-23T23:56:40.865Z,97973.98
2018-08-23T23:59:09.962Z,97975.34
